Time;durP1;ratioP1;P1;durP2;ratioP2;P2;SDS_P1;SDS_P2;PMS_P1;PMS_P2;Temp;Humidity;BMP_temperature;BMP_pressure;BME280_temperature;BME280_humidity;BME280_pressure;Samples;Min_cycle;Max_cycle;Signal;HPM_P1;HPM_P2
2022/01/22 00:01:52;;;;;;;;;;;6.40;99.90;;;;;;4701314;30;20303;-93
2022/01/22 00:10:56;;;;;;;;;;;;;;;;;;;;;
2022/01/22 00:19:08;;;;;;;;;;;6.30;99.90;;;;;;4811174;29;19924;-91
2022/01/22 00:22:03;;;;;;;;;;;6.30;99.90;;;;;;4822074;29;19917;-88
2022/01/22 00:27:37;;;;;;;;;;;6.30;99.90;;;;;;4905584;29;19919;-89
2022/01/22 00:42:58;;;;;;;;;;;6.30;99.90;;;;;;4886404;29;19911;-92
2022/01/22 00:52:00;;;;;;;;;;;6.20;99.90;;;;;;4911132;29;20010;-91
2022/01/22 01:04:01;;;;;;;;;;;6.20;99.90;;;;;;4816976;29;19915;-91
2022/01/22 01:07:05;;;;;;;;;;;;;;;;;;;;;
2022/01/22 01:13:13;;;;;;;;;;;;;;;;;;;;;
2022/01/22 01:34:40;;;;;;;;;;;;;;;;;;;;;
2022/01/22 01:40:41;;;;;;;;;;;;;;;;;;;;;
2022/01/22 01:49:05;;;;;;;;;;;;;;;;;;;;;
2022/01/22 01:51:36;;;;;;;;;;;6.30;99.90;;;;;;4884818;29;19923;-92
2022/01/22 02:00:28;;;;;;;;;;;;;;;;;;;;;
2022/01/22 02:06:11;;;;;;;;;;;6.40;99.90;;;;;;4861569;29;19915;-91
2022/01/22 02:09:09;;;;;;;;;;;;;;;;;;;;;
2022/01/22 02:23:59;;;;;;;;;;;6.40;99.90;;;;;;4938428;29;19913;-90
2022/01/22 02:26:56;;;;;;;;;;;;;;;;;;;;;
2022/01/22 02:38:46;;;;;;;;;;;6.40;99.90;;;;;;4900654;29;19919;-91
2022/01/22 02:41:46;;;;;;;;;;;;;;;;;;;;;
2022/01/22 02:44:24;;;;;;;;;;;;;;;;;;;;;
2022/01/22 02:47:32;;;;;;;;;;;;;;;;;;;;;
2022/01/22 02:50:31;;;;;;;;;;;;;;;;;;;;;
2022/01/22 02:53:30;;;;;;;;;;;;;;;;;;;;;
2022/01/22 03:02:19;;;;;;;;;;;6.50;99.90;;;;;;4898779;29;20414;-90
2022/01/22 03:05:06;;;;;;;;;;;6.40;99.90;;;;;;4920957;29;19989;-90
2022/01/22 03:08:04;;;;;;;;;;;;;;;;;;;;;
2022/01/22 03:10:53;;;;;;;;;;;6.40;99.90;;;;;;4923232;29;20240;-90
2022/01/22 03:23:06;;;;;;;;;;;6.50;99.90;;;;;;4923381;29;20474;-90
2022/01/22 03:29:15;;;;;;;;;;;6.40;99.90;;;;;;4919339;29;20375;-91
2022/01/22 03:35:07;;;;;;;;;;;;;;;;;;;;;
2022/01/22 03:38:13;;;;;;;;;;;6.50;99.90;;;;;;4922956;29;19911;-90
2022/01/22 03:41:23;;;;;;;;;;;;;;;;;;;;;
2022/01/22 03:43:53;;;;;;;;;;;6.50;99.90;;;;;;4904662;29;20002;-90
2022/01/22 03:49:40;;;;;;;;;;;;;;;;;;;;;
2022/01/22 04:13:50;;;;;;;;;;;6.50;99.90;;;;;;4825514;29;19909;-91
2022/01/22 04:32:16;;;;;;;;;;;;;;;;;;;;;
2022/01/22 04:35:17;;;;;;;;;;;6.60;99.90;;;;;;4718080;30;19923;-91
2022/01/22 04:41:05;;;;;;;;;;;;;;;;;;;;;
2022/01/22 04:43:59;;;;;;;;;;;;;;;;;;;;;
2022/01/22 04:58:53;;;;;;;;;;;6.60;99.90;;;;;;4842120;29;20017;-91
2022/01/22 05:10:34;;;;;;;;;;;;;;;;;;;;;
2022/01/22 05:13:06;;;;;;;;;;;6.70;99.90;;;;;;4883009;29;19909;-91
2022/01/22 05:15:59;;;;;;;;;;;;;;;;;;;;;
2022/01/22 05:18:40;;;;;;;;;;;;;;;;;;;;;
2022/01/22 05:21:37;;;;;;;;;;;;;;;;;;;;;
2022/01/22 05:39:28;;;;;;;;;;;6.70;99.90;;;;;;4884363;29;19918;-91
2022/01/22 05:42:13;;;;;;;;;;;6.70;99.90;;;;;;4884487;29;19908;-92
2022/01/22 05:44:54;;;;;;;;;;;;;;;;;;;;;
2022/01/22 05:48:08;;;;;;;;;;;;;;;;;;;;;
2022/01/22 05:50:44;;;;;;;;;;;;;;;;;;;;;
2022/01/22 05:59:53;;;;;;;;;;;6.70;99.90;;;;;;4863725;29;19929;-91
2022/01/22 06:02:30;;;;;;;;;;;6.70;99.90;;;;;;4883872;29;19919;-92
2022/01/22 06:08:22;;;;;;;;;;;6.70;99.90;;;;;;4887235;29;19954;-91
2022/01/22 06:14:04;;;;;;;;;;;6.70;99.90;;;;;;4832828;29;19903;-92
2022/01/22 06:16:35;;;;;;;;;;;6.70;99.90;;;;;;4851526;29;19936;-90
2022/01/22 06:19:24;;;;;;;;;;;6.70;99.90;;;;;;4866589;29;19939;-92
2022/01/22 06:28:27;;;;;;;;;;;6.70;99.90;;;;;;4851437;29;20010;-93
2022/01/22 06:31:26;;;;;;;;;;;;;;;;;;;;;
2022/01/22 06:37:19;;;;;;;;;;;6.70;99.90;;;;;;4842227;29;20019;-92
2022/01/22 06:43:28;;;;;;;;;;;6.70;99.90;;;;;;4898651;29;20276;-94
2022/01/22 06:46:27;;;;;;;;;;;;;;;;;;;;;
2022/01/22 06:52:05;;;;;;;;;;;6.70;99.90;;;;;;4855089;29;20025;-91
2022/01/22 06:54:52;;;;;;;;;;;;;;;;;;;;;
2022/01/22 06:58:12;;;;;;;;;;;6.80;99.90;;;;;;4881504;29;19915;-93
2022/01/22 07:01:00;;;;;;;;;;;6.80;99.90;;;;;;4876693;29;19959;-91
2022/01/22 07:03:39;;;;;;;;;;;6.80;99.90;;;;;;4882606;29;20356;-92
2022/01/22 07:06:20;;;;;;;;;;;;;;;;;;;;;
2022/01/22 07:08:51;;;;;;;;;;;6.80;99.90;;;;;;4919113;29;19913;-93
2022/01/22 07:21:02;;;;;;;;;;;;;;;;;;;;;
2022/01/22 07:27:17;;;;;;;;;;;6.80;99.90;;;;;;4909321;29;19907;-92
2022/01/22 07:30:23;;;;;;;;;;;6.80;99.90;;;;;;4920288;29;19908;-92
2022/01/22 07:42:37;;;;;;;;;;;6.90;99.90;;;;;;4790082;30;19916;-91
2022/01/22 07:48:25;;;;;;;;;;;;;;;;;;;;;
2022/01/22 07:54:24;;;;;;;;;;;7.00;99.90;;;;;;4893632;29;19908;-94
2022/01/22 08:06:57;;;;;;;;;;;;;;;;;;;;;
2022/01/22 08:12:44;;;;;;;;;;;;;;;;;;;;;
2022/01/22 08:15:33;;;;;;;;;;;;;;;;;;;;;
2022/01/22 09:44:48;;;;;;;;;;;;;;;;;;;;;
2022/01/22 10:09:13;;;;;;;;;;;;;;;;;;;;;
2022/01/22 10:43:46;;;;;;;;;;;7.60;99.90;;;;;;4728872;30;19914;-93
2022/01/22 10:49:21;;;;;;;;;;;;;;;;;;;;;
2022/01/22 10:51:56;;;;;;;;;;;7.60;99.90;;;;;;4811274;29;19959;-92
2022/01/22 10:54:29;;;;;;;;;;;7.70;99.90;;;;;;4922401;23;19916;-91
2022/01/22 10:57:08;;;;;;;;;;;7.70;99.90;;;;;;4912823;29;19924;-94
2022/01/22 11:02:45;;;;;;;;;;;7.70;99.90;;;;;;4901247;29;19919;-93
2022/01/22 11:05:37;;;;;;;;;;;7.70;99.90;;;;;;4884918;29;20245;-93
2022/01/22 11:11:44;;;;;;;;;;;7.60;99.90;;;;;;4887142;29;19978;-95
2022/01/22 11:17:26;;;;;;;;;;;;;;;;;;;;;
2022/01/22 11:20:24;;;;;;;;;;;;;;;;;;;;;
2022/01/22 11:25:52;;;;;;;;;;;7.70;99.90;;;;;;4892969;29;19908;-94
2022/01/22 11:28:45;;;;;;;;;;;7.70;99.90;;;;;;4884213;29;19915;-95
2022/01/22 11:31:17;;;;;;;;;;;7.70;99.90;;;;;;4883464;29;19907;-94
2022/01/22 11:34:00;;;;;;;;;;;7.70;99.90;;;;;;4884033;29;19908;-94
2022/01/22 11:36:49;;;;;;;;;;;7.70;99.90;;;;;;4882905;29;19911;-92
2022/01/22 11:39:24;;;;;;;;;;;7.70;99.90;;;;;;4900065;29;19966;-93
2022/01/22 11:41:53;;;;;;;;;;;7.80;99.90;;;;;;4867819;29;19911;-92
2022/01/22 11:44:39;;;;;;;;;;;7.80;99.90;;;;;;4882716;29;19908;-94
2022/01/22 11:47:12;;;;;;;;;;;7.80;99.90;;;;;;4894047;29;19907;-92
2022/01/22 11:50:11;;;;;;;;;;;;;;;;;;;;;
2022/01/22 11:52:40;;;;;;;;;;;7.80;99.90;;;;;;4918584;29;19907;-94
2022/01/22 11:55:38;;;;;;;;;;;7.80;99.90;;;;;;4890018;29;19923;-93
2022/01/22 12:01:38;;;;;;;;;;;;;;;;;;;;;
2022/01/22 13:14:55;;;;;;;;;;;8.00;99.90;;;;;;4979851;28;20012;-87
2022/01/22 13:17:29;;;;;;;;;;;8.00;99.90;;;;;;4944034;28;20454;-88
2022/01/22 13:23:16;;;;;;;;;;;8.00;99.90;;;;;;4978443;28;19913;-88
2022/01/22 13:25:42;;;;;;;;;;;8.00;99.90;;;;;;4977449;28;20354;-88
2022/01/22 13:28:14;;;;;;;;;;;8.00;99.90;;;;;;4960769;28;19913;-89
2022/01/22 13:30:56;;;;;;;;;;;8.00;99.90;;;;;;4945359;28;19944;-88
2022/01/22 13:48:49;;;;;;;;;;;8.00;99.90;;;;;;4977679;28;19913;-87
2022/01/22 13:51:15;;;;;;;;;;;8.00;99.90;;;;;;4961617;28;19910;-87
2022/01/22 13:53:50;;;;;;;;;;;8.00;99.90;;;;;;4976187;28;19894;-88
2022/01/22 13:56:17;;;;;;;;;;;8.00;99.90;;;;;;4983084;28;19902;-87
2022/01/22 13:58:48;;;;;;;;;;;8.00;99.90;;;;;;4998616;28;19916;-87
2022/01/22 14:01:31;;;;;;;;;;;8.00;99.90;;;;;;4954222;28;19917;-84
2022/01/22 14:04:11;;;;;;;;;;;8.00;99.90;;;;;;4957448;28;19914;-84
2022/01/22 14:06:37;;;;;;;;;;;7.90;99.90;;;;;;4976412;28;20000;-84
2022/01/22 14:09:13;;;;;;;;;;;7.90;99.90;;;;;;4958608;28;20437;-85
2022/01/22 14:11:58;;;;;;;;;;;8.00;99.90;;;;;;4958894;28;19906;-85
2022/01/22 14:14:25;;;;;;;;;;;8.00;99.90;;;;;;4952835;29;19907;-84
2022/01/22 14:17:08;;;;;;;;;;;8.00;99.90;;;;;;4938303;28;19929;-84
2022/01/22 14:19:33;;;;;;;;;;;8.00;99.90;;;;;;4939352;29;19911;-84
2022/01/22 14:21:59;;;;;;;;;;;8.00;99.90;;;;;;4939287;29;20259;-84
2022/01/22 14:24:29;;;;;;;;;;;8.00;99.90;;;;;;4956488;28;20271;-87
2022/01/22 14:26:57;;;;;;;;;;;8.00;99.90;;;;;;4939506;29;20335;-86
2022/01/22 14:29:22;;;;;;;;;;;8.00;99.90;;;;;;4956282;29;19997;-86
2022/01/22 14:31:53;;;;;;;;;;;8.00;99.90;;;;;;4939328;29;19981;-85
2022/01/22 14:34:30;;;;;;;;;;;8.00;99.90;;;;;;4939409;29;20001;-84
2022/01/22 14:36:56;;;;;;;;;;;8.00;99.90;;;;;;4975213;28;19918;-85
2022/01/22 14:44:37;;;;;;;;;;;8.00;99.90;;;;;;4975392;28;19913;-84
2022/01/22 14:47:09;;;;;;;;;;;7.90;99.90;;;;;;4957533;28;19906;-84
2022/01/22 14:49:38;;;;;;;;;;;8.00;99.90;;;;;;4957847;28;20005;-84
2022/01/22 16:24:28;;;;;;;;;;;7.80;99.90;;;;;;5551113;23;19954;-89
2022/01/22 16:26:56;;;;;;;;;;;7.80;99.90;;;;;;4924401;29;19926;-89
2022/01/22 16:29:25;;;;;;;;;;;7.90;99.90;;;;;;4924152;29;19914;-89
2022/01/22 16:32:10;;;;;;;;;;;7.90;99.90;;;;;;4923777;29;20348;-89
2022/01/22 16:34:47;;;;;;;;;;;;;;;;;;;;;
2022/01/22 16:37:15;;;;;;;;;;;7.90;99.90;;;;;;4940806;29;19914;-89
2022/01/22 16:39:46;;;;;;;;;;;7.80;99.90;;;;;;4922960;29;19938;-88
2022/01/22 16:42:15;;;;;;;;;;;7.80;99.90;;;;;;4923636;29;19993;-89
2022/01/22 16:53:48;;;;;;;;;;;7.80;99.90;;;;;;4941583;29;19928;-91
2022/01/22 16:56:00;;;;;;;;;;;7.80;99.90;;;;;;4941335;29;19915;-91
2022/01/22 16:58:37;;;;;;;;;;;7.80;99.90;;;;;;4940884;29;19901;-90
2022/01/22 17:01:17;;;;;;;;;;;7.80;99.90;;;;;;4942897;29;19942;-90
2022/01/22 17:04:16;;;;;;;;;;;;;;;;;;;;;
2022/01/22 17:07:06;;;;;;;;;;;7.80;99.90;;;;;;4951292;28;19988;-90
2022/01/22 17:15:58;;;;;;;;;;;7.80;99.90;;;;;;4940682;29;19917;-91
2022/01/22 17:18:46;;;;;;;;;;;7.80;99.90;;;;;;4922473;29;19910;-89
2022/01/22 17:21:54;;;;;;;;;;;;;;;;;;;;;
2022/01/22 17:24:25;;;;;;;;;;;7.80;99.90;;;;;;4939217;29;20381;-92
2022/01/22 17:27:13;;;;;;;;;;;7.70;99.90;;;;;;4923166;29;19915;-91
2022/01/22 17:36:00;;;;;;;;;;;7.70;99.90;;;;;;4940183;29;19918;-91
2022/01/22 17:38:34;;;;;;;;;;;7.70;99.90;;;;;;4922409;29;19917;-89
2022/01/22 17:41:05;;;;;;;;;;;7.70;99.90;;;;;;4922764;29;19906;-90
2022/01/22 17:43:37;;;;;;;;;;;7.70;99.90;;;;;;4922661;29;19945;-90
2022/01/22 17:46:08;;;;;;;;;;;7.70;99.90;;;;;;4922117;29;19910;-89
2022/01/22 17:48:34;;;;;;;;;;;7.70;99.90;;;;;;4901230;29;20014;-87
2022/01/22 17:51:05;;;;;;;;;;;7.70;99.90;;;;;;4902884;29;19970;-88
2022/01/22 17:53:33;;;;;;;;;;;7.60;99.90;;;;;;4919744;29;19911;-89
2022/01/22 17:55:59;;;;;;;;;;;7.60;99.90;;;;;;4903043;29;19981;-89
2022/01/22 17:58:25;;;;;;;;;;;7.70;99.90;;;;;;4907459;29;20343;-88
2022/01/22 18:00:55;;;;;;;;;;;7.60;99.90;;;;;;4922161;29;19973;-89
2022/01/22 18:03:25;;;;;;;;;;;7.60;99.90;;;;;;4938875;29;19914;-88
2022/01/22 18:05:59;;;;;;;;;;;7.60;99.90;;;;;;4923379;29;19907;-91
2022/01/22 18:08:24;;;;;;;;;;;7.60;99.90;;;;;;4907373;29;19911;-89
2022/01/22 18:10:55;;;;;;;;;;;7.60;99.90;;;;;;4923664;29;20279;-90
2022/01/22 18:13:33;;;;;;;;;;;7.60;99.90;;;;;;4924692;29;19966;-90
2022/01/22 18:16:07;;;;;;;;;;;7.60;99.90;;;;;;4924024;29;19966;-90
2022/01/22 18:18:45;;;;;;;;;;;;;;;;;;;;;
2022/01/22 18:21:35;;;;;;;;;;;7.60;99.90;;;;;;4942097;29;19993;-90
2022/01/22 18:24:11;;;;;;;;;;;7.60;99.90;;;;;;4918472;29;19942;-89
2022/01/22 18:26:41;;;;;;;;;;;7.50;99.90;;;;;;4923715;29;19919;-91
2022/01/22 18:29:09;;;;;;;;;;;7.60;99.90;;;;;;4928048;29;19966;-91
2022/01/22 18:31:35;;;;;;;;;;;7.50;99.90;;;;;;4927655;29;19935;-90
2022/01/22 18:34:04;;;;;;;;;;;7.50;99.90;;;;;;4936700;29;19907;-91
2022/01/22 18:36:32;;;;;;;;;;;7.50;99.90;;;;;;4940671;29;20134;-91
2022/01/22 18:39:06;;;;;;;;;;;7.50;99.90;;;;;;4926847;29;19911;-90
2022/01/22 18:41:32;;;;;;;;;;;7.50;99.90;;;;;;4922707;29;20048;-92
2022/01/22 18:44:00;;;;;;;;;;;7.50;99.90;;;;;;4923499;29;19925;-90
2022/01/22 18:46:26;;;;;;;;;;;7.50;99.90;;;;;;4917847;29;19930;-91
2022/01/22 18:48:54;;;;;;;;;;;7.40;99.90;;;;;;4922108;29;19910;-91
2022/01/22 18:51:27;;;;;;;;;;;7.50;99.90;;;;;;4902976;29;19917;-89
2022/01/22 18:54:04;;;;;;;;;;;7.40;99.90;;;;;;4922406;29;20010;-90
2022/01/22 18:56:30;;;;;;;;;;;7.40;99.90;;;;;;4921883;29;19914;-89
2022/01/22 18:59:16;;;;;;;;;;;7.50;99.90;;;;;;4922264;29;19911;-90
2022/01/22 19:02:09;;;;;;;;;;;7.40;99.90;;;;;;4920924;29;19913;-92
2022/01/22 19:04:41;;;;;;;;;;;7.40;99.90;;;;;;4915004;29;19907;-90
2022/01/22 19:10:17;;;;;;;;;;;7.40;99.90;;;;;;4931263;29;19942;-88
2022/01/22 19:12:52;;;;;;;;;;;7.40;99.90;;;;;;4910683;29;19978;-89
2022/01/22 19:15:51;;;;;;;;;;;7.40;99.90;;;;;;4923256;29;19918;-89
2022/01/22 19:18:19;;;;;;;;;;;7.40;99.90;;;;;;4937897;29;20282;-90
2022/01/22 19:20:48;;;;;;;;;;;7.40;99.90;;;;;;4907771;29;19937;-89
2022/01/22 19:23:29;;;;;;;;;;;7.40;99.90;;;;;;4922498;29;19910;-92
2022/01/22 19:26:11;;;;;;;;;;;7.40;99.90;;;;;;4923669;29;19942;-90
2022/01/22 19:28:47;;;;;;;;;;;7.40;99.90;;;;;;4922235;29;19986;-89
2022/01/22 19:31:18;;;;;;;;;;;7.30;99.90;;;;;;4911793;29;20306;-91
2022/01/22 19:33:57;;;;;;;;;;;;;;;;;;;;;
2022/01/22 19:36:50;;;;;;;;;;;7.30;99.90;;;;;;4940030;29;20354;-90
2022/01/22 19:39:39;;;;;;;;;;;7.30;99.90;;;;;;4922274;29;19918;-91
2022/01/22 19:42:26;;;;;;;;;;;7.30;99.90;;;;;;4923105;29;20426;-91
2022/01/22 19:45:11;;;;;;;;;;;7.30;99.90;;;;;;4906944;29;19911;-90
2022/01/22 19:47:46;;;;;;;;;;;7.30;99.90;;;;;;4923499;29;19999;-89
2022/01/22 19:50:21;;;;;;;;;;;7.30;99.90;;;;;;4923888;29;19961;-90
2022/01/22 19:52:50;;;;;;;;;;;7.30;99.90;;;;;;4908176;29;19938;-89
2022/01/22 19:55:22;;;;;;;;;;;7.30;99.90;;;;;;4922827;29;20282;-89
2022/01/22 19:57:51;;;;;;;;;;;7.30;99.90;;;;;;4924155;29;20430;-91
2022/01/22 20:00:17;;;;;;;;;;;7.30;99.90;;;;;;4926471;29;19911;-94
2022/01/22 20:02:47;;;;;;;;;;;7.30;99.90;;;;;;4942184;29;19931;-91
2022/01/22 20:05:13;;;;;;;;;;;7.30;99.90;;;;;;4927595;29;19918;-90
2022/01/22 20:07:42;;;;;;;;;;;7.30;99.90;;;;;;4943060;29;19898;-89
2022/01/22 20:10:18;;;;;;;;;;;7.30;99.90;;;;;;4939422;29;19998;-88
2022/01/22 20:12:50;;;;;;;;;;;7.30;99.90;;;;;;4931302;29;19907;-89
2022/01/22 20:15:24;;;;;;;;;;;7.30;99.90;;;;;;4943770;29;19910;-90
2022/01/22 20:17:57;;;;;;;;;;;7.30;99.90;;;;;;4926521;29;19997;-89
2022/01/22 20:20:34;;;;;;;;;;;7.30;99.90;;;;;;4926837;29;19934;-89
2022/01/22 20:23:00;;;;;;;;;;;7.30;99.90;;;;;;4926630;29;19914;-87
2022/01/22 20:25:25;;;;;;;;;;;7.30;99.90;;;;;;4924169;29;19930;-89
2022/01/22 20:27:56;;;;;;;;;;;7.30;99.90;;;;;;4925694;29;20005;-90
2022/01/22 20:30:26;;;;;;;;;;;7.30;99.90;;;;;;4925633;29;19915;-90
2022/01/22 20:33:03;;;;;;;;;;;7.30;99.90;;;;;;4910264;29;19911;-89
2022/01/22 20:35:31;;;;;;;;;;;7.30;99.90;;;;;;4925284;29;20360;-89
2022/01/22 20:38:17;;;;;;;;;;;7.30;99.90;;;;;;4909941;29;19993;-89
2022/01/22 20:40:56;;;;;;;;;;;;;;;;;;;;;
2022/01/22 20:43:28;;;;;;;;;;;7.30;99.90;;;;;;4943031;29;20010;-92
2022/01/22 20:45:54;;;;;;;;;;;7.20;99.90;;;;;;4925732;29;19917;-88
2022/01/22 20:48:28;;;;;;;;;;;7.30;99.90;;;;;;4926134;29;19907;-91
2022/01/22 20:50:58;;;;;;;;;;;7.20;99.90;;;;;;4908528;29;19911;-88
2022/01/22 20:53:29;;;;;;;;;;;7.20;99.90;;;;;;4927650;29;19917;-89
2022/01/22 20:56:02;;;;;;;;;;;7.20;99.90;;;;;;4926972;29;19918;-89
2022/01/22 20:59:00;;;;;;;;;;;7.20;99.90;;;;;;4943096;29;20370;-87
2022/01/22 21:01:27;;;;;;;;;;;7.20;99.90;;;;;;4926281;29;19911;-89
2022/01/22 21:03:59;;;;;;;;;;;7.20;99.90;;;;;;4926722;29;19922;-89
2022/01/22 21:06:34;;;;;;;;;;;7.20;99.90;;;;;;4908730;29;20351;-90
2022/01/22 21:09:07;;;;;;;;;;;7.20;99.90;;;;;;4926206;29;19910;-90
2022/01/22 21:11:43;;;;;;;;;;;7.20;99.90;;;;;;4942785;29;19933;-88
2022/01/22 21:14:35;;;;;;;;;;;7.20;99.90;;;;;;4926298;29;19911;-89
2022/01/22 21:17:09;;;;;;;;;;;7.20;99.90;;;;;;4920233;29;19919;-91
2022/01/22 21:19:35;;;;;;;;;;;7.20;99.90;;;;;;4924813;29;19918;-90
2022/01/22 21:22:05;;;;;;;;;;;7.20;99.90;;;;;;4910142;29;19910;-89
2022/01/22 21:24:34;;;;;;;;;;;7.20;99.90;;;;;;4925562;29;19906;-89
2022/01/22 21:27:03;;;;;;;;;;;7.20;99.90;;;;;;4922352;29;19934;-89
2022/01/22 21:29:34;;;;;;;;;;;7.20;99.90;;;;;;4926023;29;20267;-90
2022/01/22 21:32:01;;;;;;;;;;;7.20;99.90;;;;;;4929407;29;20145;-89
2022/01/22 21:34:32;;;;;;;;;;;7.20;99.90;;;;;;4939373;29;19974;-92
2022/01/22 21:39:54;;;;;;;;;;;7.10;99.90;;;;;;4917815;29;19971;-89
2022/01/22 21:42:25;;;;;;;;;;;7.10;99.90;;;;;;4922754;29;19988;-90
2022/01/22 21:44:53;;;;;;;;;;;7.10;99.90;;;;;;4891620;29;20379;-90
2022/01/22 21:47:24;;;;;;;;;;;7.10;99.90;;;;;;4906887;29;19914;-90
2022/01/22 21:49:52;;;;;;;;;;;7.10;99.90;;;;;;4921533;29;19907;-88
2022/01/22 21:52:17;;;;;;;;;;;7.10;99.90;;;;;;4904901;29;19907;-89
2022/01/22 21:54:56;;;;;;;;;;;;;;;;;;;;;
2022/01/22 21:57:25;;;;;;;;;;;7.10;99.90;;;;;;4923683;29;20017;-90
2022/01/22 22:00:12;;;;;;;;;;;7.10;99.90;;;;;;4905148;29;20272;-90
2022/01/22 22:02:45;;;;;;;;;;;7.10;99.90;;;;;;4911383;29;20322;-90
2022/01/22 22:05:47;;;;;;;;;;;;;;;;;;;;;
2022/01/22 22:08:22;;;;;;;;;;;;;;;;;;;;;
2022/01/22 22:10:49;;;;;;;;;;;7.10;99.90;;;;;;4940734;29;19920;-88
2022/01/22 22:13:27;;;;;;;;;;;7.10;99.90;;;;;;4905876;29;19942;-89
2022/01/22 22:15:58;;;;;;;;;;;7.10;99.90;;;;;;4922981;29;19938;-90
2022/01/22 22:18:35;;;;;;;;;;;;;;;;;;;;;
2022/01/22 22:24:01;;;;;;;;;;;7.10;99.90;;;;;;4909983;29;19957;-90
2022/01/22 22:26:37;;;;;;;;;;;7.10;99.90;;;;;;4922827;29;19919;-91
2022/01/22 22:29:05;;;;;;;;;;;7.10;99.90;;;;;;4922488;29;19914;-89
2022/01/22 22:31:52;;;;;;;;;;;7.10;99.90;;;;;;4916522;29;19953;-92
2022/01/22 22:34:20;;;;;;;;;;;7.10;99.90;;;;;;4910442;29;19938;-90
2022/01/22 22:37:03;;;;;;;;;;;;;;;;;;;;;
2022/01/22 22:39:52;;;;;;;;;;;7.00;99.90;;;;;;4941341;29;20017;-90
2022/01/22 22:42:22;;;;;;;;;;;7.10;99.90;;;;;;4923727;29;19935;-89
2022/01/22 22:44:50;;;;;;;;;;;7.10;99.90;;;;;;4922185;29;19911;-87
2022/01/22 22:47:26;;;;;;;;;;;;;;;;;;;;;
2022/01/22 22:53:07;;;;;;;;;;;7.00;99.90;;;;;;4925532;29;19915;-90
2022/01/22 22:55:51;;;;;;;;;;;7.10;99.90;;;;;;4922861;29;19922;-89
2022/01/22 22:58:40;;;;;;;;;;;7.00;99.90;;;;;;4894019;29;20326;-90
2022/01/22 23:01:19;;;;;;;;;;;7.00;99.90;;;;;;4910212;29;19911;-90
2022/01/22 23:03:55;;;;;;;;;;;;;;;;;;;;;
2022/01/22 23:06:33;;;;;;;;;;;;;;;;;;;;;
2022/01/22 23:12:10;;;;;;;;;;;7.00;99.90;;;;;;4958454;29;19930;-91
2022/01/22 23:21:16;;;;;;;;;;;7.00;99.90;;;;;;4941128;29;19917;-90
2022/01/22 23:26:28;;;;;;;;;;;7.00;99.90;;;;;;4939805;29;19926;-90
2022/01/22 23:29:14;;;;;;;;;;;7.00;99.90;;;;;;4922211;29;19941;-90
2022/01/22 23:31:47;;;;;;;;;;;7.00;99.90;;;;;;4924454;29;19917;-91
2022/01/22 23:34:35;;;;;;;;;;;7.00;99.90;;;;;;4939612;29;19906;-90
2022/01/22 23:46:06;;;;;;;;;;;7.00;99.90;;;;;;4910049;29;20359;-90
2022/01/22 23:46:14;;;;;;;;;;;6.90;99.90;;;;;;4920585;29;19915;-89
2022/01/22 23:54:19;;;;;;;;;;;6.90;99.90;;;;;;4943663;29;20027;-89
